createdAt,value
2022-10-21T00:00:46.041Z,22.40
2022-10-21T00:03:36.857Z,22.90
2022-10-21T00:06:07.983Z,21.20
2022-10-21T00:08:39.282Z,19.90
2022-10-21T00:11:10.617Z,20.20
2022-10-21T00:13:41.402Z,22.50
2022-10-21T00:16:13.369Z,23.00
2022-10-21T00:18:45.121Z,25.70
2022-10-21T00:21:18.025Z,23.10
2022-10-21T00:23:49.931Z,21.50
2022-10-21T00:26:21.346Z,22.50
2022-10-21T00:28:55.101Z,20.40
2022-10-21T00:31:26.197Z,21.60
2022-10-21T00:33:57.784Z,20.30
2022-10-21T00:36:32.159Z,23.30
2022-10-21T00:39:03.292Z,22.10
2022-10-21T00:41:33.824Z,20.00
2022-10-21T00:44:06.285Z,19.50
2022-10-21T00:46:39.537Z,18.90
2022-10-21T00:49:15.663Z,18.60
2022-10-21T00:51:47.393Z,20.00
2022-10-21T00:54:18.596Z,20.40
2022-10-21T00:56:49.680Z,21.30
2022-10-21T00:59:20.820Z,19.80
2022-10-21T01:01:51.464Z,19.60
2022-10-21T01:04:22.430Z,20.70
2022-10-21T01:06:53.233Z,18.50
2022-10-21T01:09:26.021Z,19.50
2022-10-21T01:11:57.528Z,21.10
2022-10-21T01:14:38.940Z,22.40
2022-10-21T01:17:26.566Z,20.50
2022-10-21T01:20:19.945Z,20.40
2022-10-21T01:22:57.994Z,19.60
2022-10-21T01:25:42.082Z,20.40
2022-10-21T01:28:17.629Z,19.10
2022-10-21T01:30:49.893Z,18.60
2022-10-21T01:33:30.508Z,19.30
2022-10-21T01:36:06.792Z,20.70
2022-10-21T01:38:42.647Z,21.80
2022-10-21T01:41:14.928Z,19.00
2022-10-21T01:43:49.565Z,19.80
2022-10-21T01:46:23.990Z,18.30
2022-10-21T01:48:56.667Z,19.40
2022-10-21T01:51:29.039Z,17.90
2022-10-21T01:54:03.208Z,19.50
2022-10-21T01:56:34.607Z,19.20
2022-10-21T01:59:06.463Z,19.90
2022-10-21T02:01:38.512Z,19.20
2022-10-21T02:04:10.304Z,19.10
2022-10-21T02:06:40.908Z,18.60
2022-10-21T02:09:11.609Z,17.90
2022-10-21T02:11:43.620Z,18.00
2022-10-21T02:14:16.667Z,16.00
2022-10-21T02:16:47.945Z,17.00
2022-10-21T02:19:19.384Z,18.60
2022-10-21T02:21:53.072Z,19.00
2022-10-21T02:26:52.805Z,19.60
2022-10-21T02:29:24.508Z,18.60
2022-10-21T02:32:01.585Z,15.80
2022-10-21T02:34:36.382Z,17.60
2022-10-21T02:37:10.276Z,19.80
2022-10-21T02:39:44.233Z,17.00
2022-10-21T02:42:17.293Z,18.70
2022-10-21T02:44:48.048Z,22.40
2022-10-21T02:47:18.860Z,25.20
2022-10-21T02:49:49.363Z,25.50
2022-10-21T02:52:20.092Z,24.20
2022-10-21T02:54:50.800Z,24.80
2022-10-21T02:57:21.483Z,22.80
2022-10-21T02:59:51.808Z,21.90
2022-10-21T03:02:22.337Z,22.20
2022-10-21T03:04:53.169Z,21.90
2022-10-21T03:07:23.892Z,24.30
2022-10-21T03:09:54.463Z,25.70
2022-10-21T03:12:25.273Z,24.00
2022-10-21T03:14:56.015Z,25.50
2022-10-21T03:17:26.763Z,21.70
2022-10-21T03:19:57.505Z,23.00
2022-10-21T03:22:28.290Z,20.30
2022-10-21T03:24:59.451Z,19.30
2022-10-21T03:30:07.794Z,21.80
2022-10-21T03:32:38.815Z,20.50
2022-10-21T03:35:10.064Z,23.10
2022-10-21T03:37:40.789Z,22.70
2022-10-21T03:40:12.499Z,21.40
2022-10-21T03:42:43.279Z,20.10
2022-10-21T03:45:14.254Z,19.70
2022-10-21T03:47:44.783Z,20.00
2022-10-21T03:50:18.238Z,19.70
2022-10-21T03:52:51.956Z,21.80
2022-10-21T03:55:24.452Z,24.50
2022-10-21T03:57:55.258Z,24.20
2022-10-21T04:00:28.296Z,23.10
2022-10-21T04:03:01.555Z,21.40
2022-10-21T04:05:32.045Z,19.90
2022-10-21T04:08:02.741Z,20.80
2022-10-21T04:10:33.285Z,20.60
2022-10-21T04:13:04.159Z,23.00
2022-10-21T04:15:35.506Z,24.60
2022-10-21T04:18:06.336Z,22.40
2022-10-21T04:20:36.850Z,21.90
2022-10-21T04:23:07.579Z,21.80
2022-10-21T04:25:38.234Z,20.70
2022-10-21T04:28:09.157Z,21.70
2022-10-21T04:30:39.715Z,22.10
2022-10-21T04:33:10.540Z,22.10
2022-10-21T04:35:41.719Z,22.90
2022-10-21T04:38:12.515Z,22.70
2022-10-21T04:40:43.357Z,23.60
2022-10-21T04:43:14.067Z,21.40
2022-10-21T04:45:44.680Z,22.10
2022-10-21T04:48:15.125Z,19.20
2022-10-21T04:50:45.830Z,20.50
2022-10-21T04:53:16.713Z,19.60
2022-10-21T04:55:47.339Z,23.30
2022-10-21T04:58:20.943Z,21.90
2022-10-21T05:00:53.039Z,20.40
2022-10-21T05:03:23.837Z,20.60
2022-10-21T05:05:54.401Z,18.20
2022-10-21T05:08:25.057Z,19.30
2022-10-21T05:11:00.542Z,18.00
2022-10-21T05:13:31.251Z,20.90
2022-10-21T05:16:02.858Z,20.20
2022-10-21T05:18:33.564Z,20.50
2022-10-21T05:21:04.331Z,22.00
2022-10-21T05:23:35.299Z,23.60
2022-10-21T05:26:06.085Z,21.80
2022-10-21T05:28:37.314Z,19.90
2022-10-21T05:31:08.078Z,18.60
2022-10-21T05:33:38.690Z,18.70
2022-10-21T05:36:09.904Z,18.70
2022-10-21T05:38:41.444Z,20.20
2022-10-21T05:41:13.068Z,20.30
2022-10-21T05:43:44.067Z,19.00
2022-10-21T05:46:14.619Z,20.70
2022-10-21T05:48:45.372Z,20.60
2022-10-21T05:51:16.027Z,21.90
2022-10-21T05:53:46.970Z,24.00
2022-10-21T05:56:17.434Z,23.20
2022-10-21T05:58:48.044Z,19.80
2022-10-21T06:01:18.762Z,21.10
2022-10-21T06:03:50.038Z,19.50
2022-10-21T06:06:20.574Z,19.50
2022-10-21T06:08:51.249Z,22.70
2022-10-21T06:11:21.927Z,21.80
2022-10-21T06:13:52.541Z,20.10
2022-10-21T06:16:23.097Z,20.50
2022-10-21T06:18:53.755Z,19.80
2022-10-21T06:21:24.572Z,18.40
2022-10-21T06:23:55.907Z,20.20
2022-10-21T06:26:27.140Z,23.80
2022-10-21T06:28:58.908Z,23.70
2022-10-21T06:31:29.645Z,24.60
2022-10-21T06:34:00.271Z,22.10
2022-10-21T06:36:30.930Z,21.50
2022-10-21T06:39:01.637Z,22.30
2022-10-21T06:41:32.151Z,22.60
2022-10-21T06:44:02.989Z,22.20
2022-10-21T06:46:33.838Z,20.70
2022-10-21T06:49:04.539Z,20.70
2022-10-21T06:51:34.847Z,19.70
2022-10-21T06:54:05.488Z,20.80
2022-10-21T06:56:36.265Z,21.10
2022-10-21T06:59:06.906Z,21.70
2022-10-21T07:01:55.266Z,23.20
2022-10-21T07:04:28.830Z,21.10
2022-10-21T07:06:59.620Z,21.20
2022-10-21T07:09:31.093Z,21.00
2022-10-21T07:12:03.084Z,22.40
2022-10-21T07:14:33.947Z,22.70
2022-10-21T07:17:04.665Z,22.50
2022-10-21T07:19:35.682Z,22.70
2022-10-21T07:22:06.221Z,20.20
2022-10-21T07:24:37.226Z,19.90
2022-10-21T07:27:08.089Z,19.00
2022-10-21T07:29:39.113Z,21.90
2022-10-21T07:32:10.386Z,21.20
2022-10-21T07:34:41.113Z,21.00
2022-10-21T07:37:11.719Z,23.30
2022-10-21T07:39:42.306Z,24.60
2022-10-21T07:42:12.900Z,21.60
2022-10-21T07:44:43.806Z,21.50
2022-10-21T07:47:14.565Z,20.20
2022-10-21T07:49:45.298Z,21.70
2022-10-21T07:52:16.036Z,22.90
2022-10-21T07:54:47.912Z,24.80
2022-10-21T07:57:18.525Z,23.60
2022-10-21T07:59:49.058Z,25.40
2022-10-21T08:02:20.040Z,25.20
2022-10-21T08:04:52.359Z,21.70
2022-10-21T08:07:23.205Z,20.20
2022-10-21T08:09:53.724Z,22.80
2022-10-21T08:12:24.503Z,23.20
2022-10-21T08:14:55.499Z,25.90
2022-10-21T08:17:26.546Z,23.10
2022-10-21T08:19:57.181Z,23.10
2022-10-21T08:22:28.021Z,21.40
2022-10-21T08:24:58.741Z,26.10
2022-10-21T08:27:30.321Z,27.60
2022-10-21T08:30:01.044Z,28.00
2022-10-21T08:32:31.870Z,26.00
2022-10-21T08:35:02.585Z,25.90
2022-10-21T08:37:33.870Z,26.10
2022-10-21T08:40:04.916Z,26.00
2022-10-21T08:42:36.542Z,28.60
2022-10-21T08:45:08.587Z,26.90
2022-10-21T08:47:45.484Z,27.60
2022-10-21T08:50:16.802Z,28.60
2022-10-21T08:52:50.948Z,26.80
2022-10-21T08:57:51.620Z,24.30
2022-10-21T09:00:22.931Z,25.00
2022-10-21T09:03:16.706Z,24.60
2022-10-21T09:06:19.101Z,27.10
2022-10-21T09:09:01.119Z,25.10
2022-10-21T09:11:40.653Z,24.20
2022-10-21T09:14:27.119Z,26.50
2022-10-21T09:17:01.642Z,27.40
2022-10-21T09:19:39.810Z,26.00
2022-10-21T09:22:35.845Z,27.80
2022-10-21T09:25:18.405Z,24.00
2022-10-21T09:27:56.465Z,24.90
2022-10-21T09:30:28.345Z,24.30
2022-10-21T09:33:00.201Z,21.40
2022-10-21T09:35:34.652Z,24.20
2022-10-21T09:38:09.090Z,24.70
2022-10-21T09:40:39.866Z,23.50
2022-10-21T09:43:16.856Z,25.10
2022-10-21T09:45:48.531Z,26.80
2022-10-21T09:48:26.870Z,26.90
2022-10-21T09:50:59.644Z,23.30
2022-10-21T09:53:32.617Z,25.20
2022-10-21T09:56:05.347Z,26.80
2022-10-21T09:58:47.236Z,27.10
2022-10-21T10:01:19.630Z,26.40
2022-10-21T10:03:50.587Z,23.50
2022-10-21T10:06:35.622Z,24.40
2022-10-21T10:09:13.918Z,27.80
2022-10-21T10:11:53.772Z,28.90
2022-10-21T10:14:31.702Z,25.80
2022-10-21T10:17:16.497Z,26.20
2022-10-21T10:20:07.065Z,22.10
2022-10-21T10:22:41.988Z,20.90
2022-10-21T10:25:18.534Z,21.10
2022-10-21T10:27:50.048Z,22.50
2022-10-21T10:30:21.580Z,22.80
2022-10-21T10:32:53.427Z,20.20
2022-10-21T10:35:30.919Z,22.10
2022-10-21T10:38:02.875Z,19.90
2022-10-21T10:40:39.741Z,21.70
2022-10-21T10:43:14.992Z,21.10
2022-10-21T10:45:50.451Z,19.20
2022-10-21T10:48:24.346Z,20.60
2022-10-21T10:50:54.681Z,19.80
2022-10-21T10:53:35.231Z,19.70
2022-10-21T10:56:22.260Z,18.40
2022-10-21T10:58:58.275Z,18.20
2022-10-21T11:01:31.739Z,18.40
2022-10-21T11:04:06.459Z,18.50
2022-10-21T11:06:41.239Z,18.00
2022-10-21T11:09:12.458Z,18.20
2022-10-21T11:11:45.417Z,17.90
2022-10-21T11:14:20.308Z,18.30
2022-10-21T11:17:00.907Z,18.70
2022-10-21T11:19:36.153Z,18.30
2022-10-21T11:22:12.697Z,17.80
2022-10-21T11:25:04.930Z,18.30
2022-10-21T11:27:44.820Z,17.40
2022-10-21T11:30:17.938Z,18.00
2022-10-21T11:32:55.054Z,18.70
2022-10-21T11:35:30.930Z,16.70
2022-10-21T11:38:18.802Z,17.60
2022-10-21T11:40:51.006Z,15.80
2022-10-21T11:43:36.018Z,17.00
2022-10-21T11:46:09.209Z,16.40
2022-10-21T11:48:45.232Z,15.70
2022-10-21T11:51:21.072Z,15.90
2022-10-21T11:54:02.673Z,15.00
2022-10-21T11:56:38.650Z,14.10
2022-10-21T11:59:18.708Z,13.80
2022-10-21T12:01:54.470Z,15.00
2022-10-21T12:04:29.140Z,15.40
2022-10-21T12:07:10.248Z,15.50
2022-10-21T12:09:43.422Z,15.80
2022-10-21T12:12:15.366Z,14.30
2022-10-21T12:14:48.173Z,15.20
2022-10-21T12:17:19.626Z,12.70
2022-10-21T12:19:54.955Z,11.80
2022-10-21T12:22:26.542Z,12.30
2022-10-21T12:24:59.672Z,13.30
2022-10-21T12:30:02.221Z,12.20
2022-10-21T12:32:36.941Z,12.20
2022-10-21T12:35:12.717Z,12.10
2022-10-21T12:38:06.260Z,11.10
2022-10-21T12:40:38.516Z,10.90
2022-10-21T12:43:16.909Z,10.40
2022-10-21T12:45:47.790Z,10.10
2022-10-21T12:48:33.179Z,10.10
2022-10-21T12:51:04.383Z,11.10
2022-10-21T12:53:38.585Z,11.60
2022-10-21T12:56:11.075Z,10.10
2022-10-21T12:58:43.989Z,10.60
2022-10-21T13:01:31.704Z,10.20
2022-10-21T13:04:02.787Z,9.10
2022-10-21T13:06:53.338Z,9.50
2022-10-21T13:09:34.867Z,10.30
2022-10-21T13:12:14.324Z,10.20
2022-10-21T13:14:47.187Z,9.40
2022-10-21T13:17:31.403Z,10.40
2022-10-21T13:20:19.301Z,9.70
2022-10-21T13:22:51.030Z,10.00
2022-10-21T13:25:23.246Z,9.20
2022-10-21T13:27:55.279Z,10.00
2022-10-21T13:30:30.118Z,10.00
2022-10-21T13:33:04.506Z,8.90
2022-10-21T13:35:37.156Z,9.60
2022-10-21T13:38:19.577Z,8.80
2022-10-21T13:43:28.969Z,8.60
2022-10-21T13:46:04.766Z,9.10
2022-10-21T13:48:38.363Z,7.80
2022-10-21T13:51:17.511Z,8.30
2022-10-21T13:53:48.659Z,8.50
2022-10-21T13:56:23.166Z,8.60
2022-10-21T13:58:54.095Z,8.50
2022-10-21T14:01:26.672Z,7.20
2022-10-21T14:03:58.307Z,8.20
2022-10-21T14:06:32.508Z,8.50
2022-10-21T14:09:05.055Z,8.70
2022-10-21T14:11:37.764Z,7.70
2022-10-21T14:14:09.719Z,7.70
2022-10-21T14:16:41.226Z,6.60
2022-10-21T14:19:15.580Z,7.90
2022-10-21T14:21:47.674Z,7.40
2022-10-21T14:24:26.275Z,7.40
2022-10-21T14:26:57.127Z,7.60
2022-10-21T14:29:29.819Z,6.90
2022-10-21T14:32:01.044Z,8.00
2022-10-21T14:34:32.807Z,7.20
2022-10-21T14:37:09.240Z,8.00
2022-10-21T14:39:42.474Z,7.20
2022-10-21T14:42:17.830Z,8.00
2022-10-21T14:44:49.425Z,8.20
2022-10-21T14:47:23.077Z,9.90
2022-10-21T14:49:54.666Z,9.80
2022-10-21T14:52:27.476Z,10.50
2022-10-21T14:54:59.893Z,10.30
2022-10-21T14:57:36.439Z,10.40
2022-10-21T15:00:10.284Z,9.40
2022-10-21T15:02:41.433Z,9.10
2022-10-21T15:05:25.713Z,9.50
2022-10-21T15:08:15.146Z,9.70
2022-10-21T15:10:45.618Z,10.80
2022-10-21T15:13:19.737Z,9.60
2022-10-21T15:15:54.072Z,9.60
2022-10-21T15:18:27.138Z,10.10
2022-10-21T15:20:58.823Z,10.70
2022-10-21T15:23:34.337Z,10.00
2022-10-21T15:26:10.327Z,10.00
2022-10-21T15:28:42.057Z,10.40
2022-10-21T15:31:16.795Z,9.10
2022-10-21T15:33:49.474Z,8.50
2022-10-21T15:36:20.281Z,9.40
2022-10-21T15:38:50.929Z,9.10
2022-10-21T15:41:22.313Z,10.00
2022-10-21T15:43:55.555Z,9.70
2022-10-21T15:46:27.210Z,9.90
2022-10-21T15:48:58.690Z,9.80
2022-10-21T15:51:29.265Z,10.20
2022-10-21T15:53:59.949Z,10.30
2022-10-21T15:56:30.856Z,10.20
2022-10-21T15:59:01.560Z,10.60
2022-10-21T16:01:32.099Z,8.70
2022-10-21T16:04:04.386Z,9.90
2022-10-21T16:06:34.943Z,10.10
2022-10-21T16:09:05.687Z,9.30
2022-10-21T16:11:41.246Z,10.80
2022-10-21T16:14:14.638Z,10.50
2022-10-21T16:16:47.578Z,8.90
2022-10-21T16:19:18.821Z,10.10
2022-10-21T16:21:49.667Z,8.80
2022-10-21T16:24:20.516Z,9.30
2022-10-21T16:26:51.744Z,10.00
2022-10-21T16:29:23.725Z,9.60
2022-10-21T16:31:55.660Z,11.00
2022-10-21T16:34:26.641Z,10.00
2022-10-21T16:36:57.365Z,10.90
2022-10-21T16:39:28.303Z,11.00
2022-10-21T16:41:58.838Z,10.00
2022-10-21T16:44:29.443Z,10.00
2022-10-21T16:47:00.280Z,10.40
2022-10-21T16:49:31.154Z,10.70
2022-10-21T16:52:02.410Z,10.90
2022-10-21T16:54:34.912Z,11.00
2022-10-21T16:57:07.110Z,10.90
2022-10-21T16:59:37.840Z,10.70
2022-10-21T17:02:15.135Z,9.60
2022-10-21T17:04:47.479Z,10.20
2022-10-21T17:07:18.220Z,9.90
2022-10-21T17:09:48.893Z,10.50
2022-10-21T17:12:19.607Z,10.00
2022-10-21T17:14:50.188Z,10.20
2022-10-21T17:17:22.493Z,9.30
2022-10-21T17:19:53.746Z,9.00
2022-10-21T17:22:24.473Z,9.40
2022-10-21T17:24:55.724Z,10.00
2022-10-21T17:27:26.960Z,9.40
2022-10-21T17:29:57.705Z,10.40
2022-10-21T17:32:28.793Z,9.30
2022-10-21T17:35:00.065Z,9.30
2022-10-21T17:37:31.020Z,8.40
2022-10-21T17:40:01.403Z,8.50
2022-10-21T17:42:32.094Z,9.10
2022-10-21T17:45:03.838Z,9.50
2022-10-21T17:47:34.881Z,8.80
2022-10-21T17:50:07.384Z,8.70
2022-10-21T17:52:38.367Z,8.50
2022-10-21T17:55:09.979Z,10.30
2022-10-21T17:57:40.475Z,10.50
2022-10-21T18:00:12.425Z,10.70
2022-10-21T18:02:43.429Z,11.50
2022-10-21T18:05:14.084Z,10.40
2022-10-21T18:07:44.789Z,10.00
2022-10-21T18:10:15.554Z,10.60
2022-10-21T18:12:46.430Z,13.10
2022-10-21T18:15:17.446Z,12.50
2022-10-21T18:17:47.956Z,11.50
2022-10-21T18:20:19.830Z,12.90
2022-10-21T18:22:53.133Z,14.10
2022-10-21T18:27:53.155Z,15.20
2022-10-21T18:30:23.680Z,12.30
2022-10-21T18:32:54.567Z,12.00
2022-10-21T18:35:25.166Z,13.10
2022-10-21T18:37:57.306Z,12.40
2022-10-21T18:40:28.688Z,12.10
2022-10-21T18:42:59.463Z,14.80
2022-10-21T18:45:30.234Z,16.10
2022-10-21T18:48:01.262Z,17.20
2022-10-21T18:50:32.202Z,15.60
2022-10-21T18:53:03.677Z,15.60
2022-10-21T18:55:34.287Z,16.20
2022-10-21T18:58:05.345Z,19.50
2022-10-21T19:00:37.482Z,18.20
2022-10-21T19:03:08.883Z,19.30
2022-10-21T19:05:41.791Z,21.10
2022-10-21T19:10:43.287Z,17.50
2022-10-21T19:13:13.714Z,17.50
2022-10-21T19:15:44.841Z,16.40
2022-10-21T19:18:15.502Z,18.10
2022-10-21T19:20:46.937Z,18.40
2022-10-21T19:23:17.673Z,19.30
2022-10-21T19:25:48.497Z,19.10
2022-10-21T19:28:19.025Z,19.10
2022-10-21T19:30:49.969Z,20.40
2022-10-21T19:33:20.622Z,19.00
2022-10-21T19:35:51.665Z,19.60
2022-10-21T19:38:39.758Z,19.20
2022-10-21T19:41:14.643Z,19.90
2022-10-21T19:43:45.127Z,21.00
2022-10-21T19:46:21.044Z,20.70
2022-10-21T19:48:54.089Z,19.00
2022-10-21T19:51:26.992Z,19.70
2022-10-21T19:53:57.795Z,19.70
2022-10-21T19:56:32.104Z,20.60
2022-10-21T19:59:05.689Z,20.90
2022-10-21T20:01:37.443Z,21.20
2022-10-21T20:04:08.510Z,20.80
2022-10-21T20:06:40.244Z,18.90
2022-10-21T20:09:11.769Z,19.10
2022-10-21T20:11:43.120Z,19.30
2022-10-21T20:14:14.258Z,20.60
2022-10-21T20:16:47.410Z,22.30
2022-10-21T20:19:18.037Z,21.20
2022-10-21T20:21:49.535Z,22.40
2022-10-21T20:24:20.331Z,21.80
2022-10-21T20:26:51.699Z,21.30
2022-10-21T20:29:22.293Z,21.30
2022-10-21T20:31:53.182Z,21.50
2022-10-21T20:34:23.761Z,23.50
2022-10-21T20:36:54.496Z,24.70
2022-10-21T20:39:25.614Z,24.30
2022-10-21T20:41:56.474Z,22.70
2022-10-21T20:44:27.293Z,21.40
2022-10-21T20:46:57.970Z,20.70
2022-10-21T20:49:28.597Z,17.70
2022-10-21T20:51:59.326Z,19.00
2022-10-21T20:54:30.338Z,19.90
2022-10-21T20:57:00.898Z,20.60
2022-10-21T20:59:31.586Z,21.00
2022-10-21T21:02:02.033Z,19.80
2022-10-21T21:04:32.968Z,19.40
2022-10-21T21:07:03.626Z,20.80
2022-10-21T21:10:03.740Z,19.90
2022-10-21T21:12:25.147Z,21.40
2022-10-21T21:14:56.079Z,22.40
2022-10-21T21:17:26.909Z,23.50
2022-10-21T21:19:57.656Z,22.90
2022-10-21T21:22:28.371Z,23.60
2022-10-21T21:24:58.859Z,22.20
2022-10-21T21:27:31.613Z,23.10
2022-10-21T21:32:37.475Z,22.60
2022-10-21T21:35:09.514Z,27.20
2022-10-21T21:37:40.214Z,28.60
2022-10-21T21:40:11.811Z,27.60
2022-10-21T21:42:42.455Z,27.70
2022-10-21T21:45:13.577Z,26.50
2022-10-21T21:47:44.010Z,27.40
2022-10-21T21:50:14.761Z,30.30
2022-10-21T21:52:45.543Z,31.10
2022-10-21T21:55:16.617Z,31.50
2022-10-21T21:57:47.139Z,27.20
2022-10-21T22:00:17.997Z,22.80
2022-10-21T22:02:48.531Z,24.00
2022-10-21T22:05:22.483Z,21.60
2022-10-21T22:07:57.044Z,19.60
2022-10-21T22:10:28.296Z,24.90
2022-10-21T22:12:59.013Z,21.50
2022-10-21T22:15:46.974Z,20.50
2022-10-21T22:18:19.523Z,21.00
2022-10-21T22:20:50.194Z,19.90
2022-10-21T22:23:21.721Z,19.00
2022-10-21T22:25:52.266Z,18.80
2022-10-21T22:28:23.185Z,20.30
2022-10-21T22:31:03.962Z,19.40
2022-10-21T22:33:35.384Z,19.10
2022-10-21T22:36:06.578Z,17.90
2022-10-21T22:38:37.512Z,20.70
2022-10-21T22:41:12.230Z,24.00
2022-10-21T22:43:44.264Z,23.50
2022-10-21T22:46:33.495Z,21.50
2022-10-21T22:49:05.416Z,21.50
2022-10-21T22:51:36.170Z,21.00
2022-10-21T22:54:15.123Z,20.90
2022-10-21T22:56:50.624Z,21.60
2022-10-21T22:59:21.274Z,26.10
2022-10-21T23:01:52.056Z,28.30
2022-10-21T23:04:22.787Z,27.90
2022-10-21T23:06:53.443Z,26.40
2022-10-21T23:09:24.052Z,26.50
2022-10-21T23:11:54.694Z,26.70
2022-10-21T23:14:25.520Z,27.00
2022-10-21T23:16:56.462Z,29.00
2022-10-21T23:19:27.291Z,28.90
2022-10-21T23:21:58.003Z,31.40
2022-10-21T23:24:28.653Z,27.80
2022-10-21T23:27:01.408Z,28.10
2022-10-21T23:29:32.813Z,28.50
2022-10-21T23:32:03.502Z,27.00
2022-10-21T23:34:34.292Z,27.80
2022-10-21T23:37:05.166Z,30.60
2022-10-21T23:39:36.253Z,28.40
2022-10-21T23:42:06.789Z,28.50
2022-10-21T23:44:37.724Z,28.60
2022-10-21T23:47:08.447Z,27.10
2022-10-21T23:49:39.337Z,32.20
2022-10-21T23:52:09.992Z,32.60
2022-10-21T23:54:40.623Z,32.30
2022-10-21T23:57:11.251Z,33.60
2022-10-21T23:59:42.087Z,36.00
